sensor_id;sensor_type;location;lat;lon;timestamp;P1;P2;P0
74333;PMS5003;62753;40.394;-80.022;2023-07-29T00:00:05;33;29;
74333;PMS5003;62753;40.394;-80.022;2023-07-29T00:02:30;33;30;
74333;PMS5003;62753;40.394;-80.022;2023-07-29T00:04:55;27;25;
74333;PMS5003;62753;40.394;-80.022;2023-07-29T00:07:20;34;28;
74333;PMS5003;62753;40.394;-80.022;2023-07-29T00:09:45;29;26;
74333;PMS5003;62753;40.394;-80.022;2023-07-29T00:12:10;27;25;
74333;PMS5003;62753;40.394;-80.022;2023-07-29T00:14:35;34;29;
74333;PMS5003;62753;40.394;-80.022;2023-07-29T00:17:01;30;29;
74333;PMS5003;62753;40.394;-80.022;2023-07-29T00:19:26;29;24;
74333;PMS5003;62753;40.394;-80.022;2023-07-29T00:21:52;29;27;
74333;PMS5003;62753;40.394;-80.022;2023-07-29T00:24:17;30;27;
74333;PMS5003;62753;40.394;-80.022;2023-07-29T00:26:42;27;25;
74333;PMS5003;62753;40.394;-80.022;2023-07-29T00:29:08;25;23;
74333;PMS5003;62753;40.394;-80.022;2023-07-29T00:31:34;27;22;
74333;PMS5003;62753;40.394;-80.022;2023-07-29T00:33:59;20;19;
74333;PMS5003;62753;40.394;-80.022;2023-07-29T00:36:25;17;15;
74333;PMS5003;62753;40.394;-80.022;2023-07-29T00:38:50;19;17;
74333;PMS5003;62753;40.394;-80.022;2023-07-29T00:41:15;22;19;
74333;PMS5003;62753;40.394;-80.022;2023-07-29T00:43:41;17;16;
74333;PMS5003;62753;40.394;-80.022;2023-07-29T00:46:07;16;15;
74333;PMS5003;62753;40.394;-80.022;2023-07-29T00:48:32;16;16;
74333;PMS5003;62753;40.394;-80.022;2023-07-29T00:50:58;15;12;
74333;PMS5003;62753;40.394;-80.022;2023-07-29T00:53:23;11;11;
74333;PMS5003;62753;40.394;-80.022;2023-07-29T00:55:48;11;11;
74333;PMS5003;62753;40.394;-80.022;2023-07-29T00:58:13;14;14;
74333;PMS5003;62753;40.394;-80.022;2023-07-29T01:00:39;12;11;
74333;PMS5003;62753;40.394;-80.022;2023-07-29T01:03:05;12;12;
74333;PMS5003;62753;40.394;-80.022;2023-07-29T01:05:32;11;10;
74333;PMS5003;62753;40.394;-80.022;2023-07-29T01:07:56;12;12;
74333;PMS5003;62753;40.394;-80.022;2023-07-29T01:10:24;9;9;
74333;PMS5003;62753;40.394;-80.022;2023-07-29T01:12:47;12;10;
74333;PMS5003;62753;40.394;-80.022;2023-07-29T01:15:11;10;9;
74333;PMS5003;62753;40.394;-80.022;2023-07-29T01:17:36;8;8;
74333;PMS5003;62753;40.394;-80.022;2023-07-29T01:20:01;13;9;
74333;PMS5003;62753;40.394;-80.022;2023-07-29T01:22:25;10;10;
74333;PMS5003;62753;40.394;-80.022;2023-07-29T01:24:50;10;9;
74333;PMS5003;62753;40.394;-80.022;2023-07-29T01:27:16;11;11;
74333;PMS5003;62753;40.394;-80.022;2023-07-29T01:29:40;10;10;
74333;PMS5003;62753;40.394;-80.022;2023-07-29T01:32:08;10;10;
74333;PMS5003;62753;40.394;-80.022;2023-07-29T01:34:32;7;6;
74333;PMS5003;62753;40.394;-80.022;2023-07-29T01:36:57;11;10;
74333;PMS5003;62753;40.394;-80.022;2023-07-29T01:39:21;9;8;
74333;PMS5003;62753;40.394;-80.022;2023-07-29T01:41:46;10;9;
74333;PMS5003;62753;40.394;-80.022;2023-07-29T01:44:12;10;10;
74333;PMS5003;62753;40.394;-80.022;2023-07-29T01:46:36;9;9;
74333;PMS5003;62753;40.394;-80.022;2023-07-29T01:49:01;8;8;
74333;PMS5003;62753;40.394;-80.022;2023-07-29T01:51:26;9;8;
74333;PMS5003;62753;40.394;-80.022;2023-07-29T01:53:51;8;8;
74333;PMS5003;62753;40.394;-80.022;2023-07-29T01:56:17;6;6;
74333;PMS5003;62753;40.394;-80.022;2023-07-29T01:58:42;8;8;
74333;PMS5003;62753;40.394;-80.022;2023-07-29T02:01:07;9;8;
74333;PMS5003;62753;40.394;-80.022;2023-07-29T02:03:32;8;7;
74333;PMS5003;62753;40.394;-80.022;2023-07-29T02:05:57;8;7;
74333;PMS5003;62753;40.394;-80.022;2023-07-29T02:08:22;8;8;
74333;PMS5003;62753;40.394;-80.022;2023-07-29T02:10:47;8;7;
74333;PMS5003;62753;40.394;-80.022;2023-07-29T02:13:13;12;11;
74333;PMS5003;62753;40.394;-80.022;2023-07-29T02:15:38;8;7;
74333;PMS5003;62753;40.394;-80.022;2023-07-29T02:18:03;10;9;
74333;PMS5003;62753;40.394;-80.022;2023-07-29T02:20:28;6;6;
74333;PMS5003;62753;40.394;-80.022;2023-07-29T02:22:54;9;7;
74333;PMS5003;62753;40.394;-80.022;2023-07-29T02:25:18;9;9;
74333;PMS5003;62753;40.394;-80.022;2023-07-29T02:27:44;6;5;
74333;PMS5003;62753;40.394;-80.022;2023-07-29T02:30:10;8;8;
74333;PMS5003;62753;40.394;-80.022;2023-07-29T02:32:34;9;9;
74333;PMS5003;62753;40.394;-80.022;2023-07-29T02:34:59;9;8;
74333;PMS5003;62753;40.394;-80.022;2023-07-29T02:37:25;6;5;
74333;PMS5003;62753;40.394;-80.022;2023-07-29T02:39:50;9;8;
74333;PMS5003;62753;40.394;-80.022;2023-07-29T02:42:15;7;7;
74333;PMS5003;62753;40.394;-80.022;2023-07-29T02:44:40;7;7;
74333;PMS5003;62753;40.394;-80.022;2023-07-29T02:47:05;8;7;
74333;PMS5003;62753;40.394;-80.022;2023-07-29T02:49:30;7;6;
74333;PMS5003;62753;40.394;-80.022;2023-07-29T02:51:56;7;6;
74333;PMS5003;62753;40.394;-80.022;2023-07-29T02:54:21;7;5;
74333;PMS5003;62753;40.394;-80.022;2023-07-29T02:56:45;7;7;
74333;PMS5003;62753;40.394;-80.022;2023-07-29T02:59:11;8;8;
74333;PMS5003;62753;40.394;-80.022;2023-07-29T03:01:36;9;9;
74333;PMS5003;62753;40.394;-80.022;2023-07-29T03:04:02;6;6;
74333;PMS5003;62753;40.394;-80.022;2023-07-29T03:06:26;8;6;
74333;PMS5003;62753;40.394;-80.022;2023-07-29T03:08:52;8;7;
74333;PMS5003;62753;40.394;-80.022;2023-07-29T03:11:17;6;5;
74333;PMS5003;62753;40.394;-80.022;2023-07-29T03:13:42;6;6;
74333;PMS5003;62753;40.394;-80.022;2023-07-29T03:16:08;6;6;
74333;PMS5003;62753;40.394;-80.022;2023-07-29T03:18:32;6;6;
74333;PMS5003;62753;40.394;-80.022;2023-07-29T03:20:57;8;8;
74333;PMS5003;62753;40.394;-80.022;2023-07-29T03:23:22;8;7;
74333;PMS5003;62753;40.394;-80.022;2023-07-29T03:25:48;6;6;
74333;PMS5003;62753;40.394;-80.022;2023-07-29T03:28:13;6;6;
74333;PMS5003;62753;40.394;-80.022;2023-07-29T03:30:38;8;7;
74333;PMS5003;62753;40.394;-80.022;2023-07-29T03:33:03;7;7;
74333;PMS5003;62753;40.394;-80.022;2023-07-29T03:35:28;6;6;
74333;PMS5003;62753;40.394;-80.022;2023-07-29T03:37:53;10;9;
74333;PMS5003;62753;40.394;-80.022;2023-07-29T03:40:18;7;7;
74333;PMS5003;62753;40.394;-80.022;2023-07-29T03:42:43;6;6;
74333;PMS5003;62753;40.394;-80.022;2023-07-29T03:45:09;7;7;
74333;PMS5003;62753;40.394;-80.022;2023-07-29T03:47:33;6;6;
74333;PMS5003;62753;40.394;-80.022;2023-07-29T03:49:59;8;7;
74333;PMS5003;62753;40.394;-80.022;2023-07-29T03:52:24;8;8;
74333;PMS5003;62753;40.394;-80.022;2023-07-29T03:54:49;8;8;
74333;PMS5003;62753;40.394;-80.022;2023-07-29T03:57:14;7;7;
74333;PMS5003;62753;40.394;-80.022;2023-07-29T03:59:40;5;5;
74333;PMS5003;62753;40.394;-80.022;2023-07-29T04:02:05;6;6;
74333;PMS5003;62753;40.394;-80.022;2023-07-29T04:04:30;14;9;
74333;PMS5003;62753;40.394;-80.022;2023-07-29T04:06:55;11;11;
74333;PMS5003;62753;40.394;-80.022;2023-07-29T04:09:20;9;7;
74333;PMS5003;62753;40.394;-80.022;2023-07-29T04:11:45;8;8;
74333;PMS5003;62753;40.394;-80.022;2023-07-29T04:14:11;9;8;
74333;PMS5003;62753;40.394;-80.022;2023-07-29T04:16:35;7;7;
74333;PMS5003;62753;40.394;-80.022;2023-07-29T04:19:01;7;7;
74333;PMS5003;62753;40.394;-80.022;2023-07-29T04:21:26;7;6;
74333;PMS5003;62753;40.394;-80.022;2023-07-29T04:23:51;9;9;
74333;PMS5003;62753;40.394;-80.022;2023-07-29T04:26:16;9;8;
74333;PMS5003;62753;40.394;-80.022;2023-07-29T04:28:42;9;9;
74333;PMS5003;62753;40.394;-80.022;2023-07-29T04:31:06;7;7;
74333;PMS5003;62753;40.394;-80.022;2023-07-29T04:33:31;10;10;
74333;PMS5003;62753;40.394;-80.022;2023-07-29T04:35:57;10;8;
74333;PMS5003;62753;40.394;-80.022;2023-07-29T04:38:22;7;7;
74333;PMS5003;62753;40.394;-80.022;2023-07-29T04:40:48;7;7;
74333;PMS5003;62753;40.394;-80.022;2023-07-29T04:43:12;7;7;
74333;PMS5003;62753;40.394;-80.022;2023-07-29T04:45:42;7;7;
74333;PMS5003;62753;40.394;-80.022;2023-07-29T04:48:03;8;7;
74333;PMS5003;62753;40.394;-80.022;2023-07-29T04:50:28;8;7;
74333;PMS5003;62753;40.394;-80.022;2023-07-29T04:52:54;9;9;
74333;PMS5003;62753;40.394;-80.022;2023-07-29T04:55:19;7;7;
74333;PMS5003;62753;40.394;-80.022;2023-07-29T04:57:44;7;6;
74333;PMS5003;62753;40.394;-80.022;2023-07-29T05:00:10;10;9;
74333;PMS5003;62753;40.394;-80.022;2023-07-29T05:02:34;8;8;
74333;PMS5003;62753;40.394;-80.022;2023-07-29T05:05:00;9;7;
74333;PMS5003;62753;40.394;-80.022;2023-07-29T05:07:25;12;9;
74333;PMS5003;62753;40.394;-80.022;2023-07-29T05:09:50;9;8;
74333;PMS5003;62753;40.394;-80.022;2023-07-29T05:12:15;9;9;
74333;PMS5003;62753;40.394;-80.022;2023-07-29T05:14:40;10;9;
74333;PMS5003;62753;40.394;-80.022;2023-07-29T05:17:05;10;10;
74333;PMS5003;62753;40.394;-80.022;2023-07-29T05:19:31;12;10;
74333;PMS5003;62753;40.394;-80.022;2023-07-29T05:21:57;7;7;
74333;PMS5003;62753;40.394;-80.022;2023-07-29T05:24:21;9;9;
74333;PMS5003;62753;40.394;-80.022;2023-07-29T05:26:47;10;9;
74333;PMS5003;62753;40.394;-80.022;2023-07-29T05:29:12;7;6;
74333;PMS5003;62753;40.394;-80.022;2023-07-29T05:31:37;10;10;
74333;PMS5003;62753;40.394;-80.022;2023-07-29T05:34:02;11;9;
74333;PMS5003;62753;40.394;-80.022;2023-07-29T05:36:27;10;9;
74333;PMS5003;62753;40.394;-80.022;2023-07-29T05:38:53;8;8;
74333;PMS5003;62753;40.394;-80.022;2023-07-29T05:41:18;13;10;
74333;PMS5003;62753;40.394;-80.022;2023-07-29T05:43:44;10;10;
74333;PMS5003;62753;40.394;-80.022;2023-07-29T05:46:08;11;11;
74333;PMS5003;62753;40.394;-80.022;2023-07-29T05:48:34;8;7;
74333;PMS5003;62753;40.394;-80.022;2023-07-29T05:50:59;11;11;
74333;PMS5003;62753;40.394;-80.022;2023-07-29T05:53:24;9;9;
74333;PMS5003;62753;40.394;-80.022;2023-07-29T05:55:49;9;9;
74333;PMS5003;62753;40.394;-80.022;2023-07-29T05:58:14;9;8;
74333;PMS5003;62753;40.394;-80.022;2023-07-29T06:00:39;8;8;
74333;PMS5003;62753;40.394;-80.022;2023-07-29T06:03:05;9;8;
74333;PMS5003;62753;40.394;-80.022;2023-07-29T06:05:30;13;13;
74333;PMS5003;62753;40.394;-80.022;2023-07-29T06:07:55;11;9;
74333;PMS5003;62753;40.394;-80.022;2023-07-29T06:10:21;7;7;
74333;PMS5003;62753;40.394;-80.022;2023-07-29T06:12:46;9;9;
74333;PMS5003;62753;40.394;-80.022;2023-07-29T06:15:12;10;10;
74333;PMS5003;62753;40.394;-80.022;2023-07-29T06:17:37;10;8;
74333;PMS5003;62753;40.394;-80.022;2023-07-29T06:20:02;12;12;
74333;PMS5003;62753;40.394;-80.022;2023-07-29T06:22:27;8;8;
74333;PMS5003;62753;40.394;-80.022;2023-07-29T06:24:53;10;9;
74333;PMS5003;62753;40.394;-80.022;2023-07-29T06:27:18;8;8;
74333;PMS5003;62753;40.394;-80.022;2023-07-29T06:29:43;9;8;
74333;PMS5003;62753;40.394;-80.022;2023-07-29T06:32:08;7;7;
74333;PMS5003;62753;40.394;-80.022;2023-07-29T06:34:33;10;10;
74333;PMS5003;62753;40.394;-80.022;2023-07-29T06:36:58;10;10;
74333;PMS5003;62753;40.394;-80.022;2023-07-29T06:39:24;8;8;
74333;PMS5003;62753;40.394;-80.022;2023-07-29T06:41:49;9;8;
74333;PMS5003;62753;40.394;-80.022;2023-07-29T06:44:14;11;10;
74333;PMS5003;62753;40.394;-80.022;2023-07-29T06:46:40;12;11;
74333;PMS5003;62753;40.394;-80.022;2023-07-29T06:49:05;11;9;
74333;PMS5003;62753;40.394;-80.022;2023-07-29T06:51:30;11;10;
74333;PMS5003;62753;40.394;-80.022;2023-07-29T06:53:55;10;10;
74333;PMS5003;62753;40.394;-80.022;2023-07-29T06:56:21;10;10;
74333;PMS5003;62753;40.394;-80.022;2023-07-29T06:58:46;12;12;
74333;PMS5003;62753;40.394;-80.022;2023-07-29T07:01:11;12;11;
74333;PMS5003;62753;40.394;-80.022;2023-07-29T07:03:36;13;12;
74333;PMS5003;62753;40.394;-80.022;2023-07-29T07:06:02;11;9;
74333;PMS5003;62753;40.394;-80.022;2023-07-29T07:08:26;9;9;
74333;PMS5003;62753;40.394;-80.022;2023-07-29T07:10:51;13;12;
74333;PMS5003;62753;40.394;-80.022;2023-07-29T07:13:17;10;9;
74333;PMS5003;62753;40.394;-80.022;2023-07-29T07:15:42;12;11;
74333;PMS5003;62753;40.394;-80.022;2023-07-29T07:18:07;9;9;
74333;PMS5003;62753;40.394;-80.022;2023-07-29T07:20:32;11;11;
74333;PMS5003;62753;40.394;-80.022;2023-07-29T07:22:57;10;10;
74333;PMS5003;62753;40.394;-80.022;2023-07-29T07:25:22;14;12;
74333;PMS5003;62753;40.394;-80.022;2023-07-29T07:27:48;19;14;
74333;PMS5003;62753;40.394;-80.022;2023-07-29T07:30:13;16;15;
74333;PMS5003;62753;40.394;-80.022;2023-07-29T07:32:38;15;12;
74333;PMS5003;62753;40.394;-80.022;2023-07-29T07:35:04;18;16;
74333;PMS5003;62753;40.394;-80.022;2023-07-29T07:37:30;20;16;
74333;PMS5003;62753;40.394;-80.022;2023-07-29T07:39:55;17;14;
74333;PMS5003;62753;40.394;-80.022;2023-07-29T07:42:20;19;16;
74333;PMS5003;62753;40.394;-80.022;2023-07-29T07:44:45;13;13;
74333;PMS5003;62753;40.394;-80.022;2023-07-29T07:47:10;14;13;
74333;PMS5003;62753;40.394;-80.022;2023-07-29T07:49:36;14;13;
74333;PMS5003;62753;40.394;-80.022;2023-07-29T07:52:02;13;12;
74333;PMS5003;62753;40.394;-80.022;2023-07-29T07:54:27;14;11;
74333;PMS5003;62753;40.394;-80.022;2023-07-29T07:56:53;17;15;
74333;PMS5003;62753;40.394;-80.022;2023-07-29T07:59:19;16;16;
74333;PMS5003;62753;40.394;-80.022;2023-07-29T08:01:44;17;15;
74333;PMS5003;62753;40.394;-80.022;2023-07-29T08:04:10;17;16;
74333;PMS5003;62753;40.394;-80.022;2023-07-29T08:06:36;15;14;
74333;PMS5003;62753;40.394;-80.022;2023-07-29T08:09:00;19;17;
74333;PMS5003;62753;40.394;-80.022;2023-07-29T08:11:26;16;13;
74333;PMS5003;62753;40.394;-80.022;2023-07-29T08:13:52;12;11;
74333;PMS5003;62753;40.394;-80.022;2023-07-29T08:16:17;14;14;
74333;PMS5003;62753;40.394;-80.022;2023-07-29T08:18:42;14;11;
74333;PMS5003;62753;40.394;-80.022;2023-07-29T08:21:08;13;11;
74333;PMS5003;62753;40.394;-80.022;2023-07-29T08:23:34;10;10;
74333;PMS5003;62753;40.394;-80.022;2023-07-29T08:26:00;9;8;
74333;PMS5003;62753;40.394;-80.022;2023-07-29T08:28:24;8;8;
74333;PMS5003;62753;40.394;-80.022;2023-07-29T08:30:49;11;10;
74333;PMS5003;62753;40.394;-80.022;2023-07-29T08:33:15;13;11;
74333;PMS5003;62753;40.394;-80.022;2023-07-29T08:35:40;10;10;
74333;PMS5003;62753;40.394;-80.022;2023-07-29T08:38:05;10;9;
74333;PMS5003;62753;40.394;-80.022;2023-07-29T08:40:31;14;11;
74333;PMS5003;62753;40.394;-80.022;2023-07-29T08:42:56;8;7;
74333;PMS5003;62753;40.394;-80.022;2023-07-29T08:45:22;13;12;
74333;PMS5003;62753;40.394;-80.022;2023-07-29T08:47:47;12;12;
74333;PMS5003;62753;40.394;-80.022;2023-07-29T08:50:12;12;11;
74333;PMS5003;62753;40.394;-80.022;2023-07-29T08:52:37;11;10;
74333;PMS5003;62753;40.394;-80.022;2023-07-29T08:55:04;7;7;
74333;PMS5003;62753;40.394;-80.022;2023-07-29T08:57:28;10;9;
74333;PMS5003;62753;40.394;-80.022;2023-07-29T08:59:54;10;9;
74333;PMS5003;62753;40.394;-80.022;2023-07-29T09:02:19;11;9;
74333;PMS5003;62753;40.394;-80.022;2023-07-29T09:04:44;10;9;
74333;PMS5003;62753;40.394;-80.022;2023-07-29T09:07:09;8;7;
74333;PMS5003;62753;40.394;-80.022;2023-07-29T09:09:35;8;7;
74333;PMS5003;62753;40.394;-80.022;2023-07-29T09:12:00;9;9;
74333;PMS5003;62753;40.394;-80.022;2023-07-29T09:14:25;11;9;
74333;PMS5003;62753;40.394;-80.022;2023-07-29T09:16:50;11;11;
74333;PMS5003;62753;40.394;-80.022;2023-07-29T09:19:15;11;9;
74333;PMS5003;62753;40.394;-80.022;2023-07-29T09:21:41;12;12;
74333;PMS5003;62753;40.394;-80.022;2023-07-29T09:24:06;10;9;
74333;PMS5003;62753;40.394;-80.022;2023-07-29T09:26:31;11;11;
74333;PMS5003;62753;40.394;-80.022;2023-07-29T09:28:57;9;8;
74333;PMS5003;62753;40.394;-80.022;2023-07-29T09:31:22;9;9;
74333;PMS5003;62753;40.394;-80.022;2023-07-29T09:33:47;10;8;
74333;PMS5003;62753;40.394;-80.022;2023-07-29T09:36:13;9;8;
74333;PMS5003;62753;40.394;-80.022;2023-07-29T09:38:38;11;10;
74333;PMS5003;62753;40.394;-80.022;2023-07-29T09:41:03;10;10;
74333;PMS5003;62753;40.394;-80.022;2023-07-29T09:43:29;10;9;
74333;PMS5003;62753;40.394;-80.022;2023-07-29T09:45:53;10;10;
74333;PMS5003;62753;40.394;-80.022;2023-07-29T09:48:19;10;10;
74333;PMS5003;62753;40.394;-80.022;2023-07-29T09:50:43;10;10;
74333;PMS5003;62753;40.394;-80.022;2023-07-29T09:53:09;12;12;
74333;PMS5003;62753;40.394;-80.022;2023-07-29T09:55:33;10;10;
74333;PMS5003;62753;40.394;-80.022;2023-07-29T09:58:00;11;11;
74333;PMS5003;62753;40.394;-80.022;2023-07-29T10:00:24;12;12;
74333;PMS5003;62753;40.394;-80.022;2023-07-29T10:02:50;13;12;
74333;PMS5003;62753;40.394;-80.022;2023-07-29T10:05:15;13;13;
74333;PMS5003;62753;40.394;-80.022;2023-07-29T10:07:41;12;12;
74333;PMS5003;62753;40.394;-80.022;2023-07-29T10:10:06;12;10;
74333;PMS5003;62753;40.394;-80.022;2023-07-29T10:12:32;14;11;
74333;PMS5003;62753;40.394;-80.022;2023-07-29T10:14:58;13;13;
74333;PMS5003;62753;40.394;-80.022;2023-07-29T10:17:22;10;10;
74333;PMS5003;62753;40.394;-80.022;2023-07-29T10:19:48;15;15;
74333;PMS5003;62753;40.394;-80.022;2023-07-29T10:22:13;14;13;
74333;PMS5003;62753;40.394;-80.022;2023-07-29T10:24:38;17;14;
74333;PMS5003;62753;40.394;-80.022;2023-07-29T10:27:04;14;12;
74333;PMS5003;62753;40.394;-80.022;2023-07-29T10:29:31;17;16;
74333;PMS5003;62753;40.394;-80.022;2023-07-29T10:31:54;13;13;
74333;PMS5003;62753;40.394;-80.022;2023-07-29T10:34:20;15;11;
74333;PMS5003;62753;40.394;-80.022;2023-07-29T10:36:45;16;12;
74333;PMS5003;62753;40.394;-80.022;2023-07-29T10:39:11;12;10;
74333;PMS5003;62753;40.394;-80.022;2023-07-29T10:44:02;15;15;
74333;PMS5003;62753;40.394;-80.022;2023-07-29T10:46:28;15;12;
74333;PMS5003;62753;40.394;-80.022;2023-07-29T10:48:54;12;12;
74333;PMS5003;62753;40.394;-80.022;2023-07-29T10:51:22;14;13;
74333;PMS5003;62753;40.394;-80.022;2023-07-29T10:53:43;14;14;
74333;PMS5003;62753;40.394;-80.022;2023-07-29T10:56:08;15;13;
74333;PMS5003;62753;40.394;-80.022;2023-07-29T10:58:34;15;12;
74333;PMS5003;62753;40.394;-80.022;2023-07-29T11:00:59;15;12;
74333;PMS5003;62753;40.394;-80.022;2023-07-29T11:03:25;12;12;
74333;PMS5003;62753;40.394;-80.022;2023-07-29T11:05:51;12;12;
74333;PMS5003;62753;40.394;-80.022;2023-07-29T11:08:16;12;12;
74333;PMS5003;62753;40.394;-80.022;2023-07-29T11:10:42;15;12;
74333;PMS5003;62753;40.394;-80.022;2023-07-29T11:13:05;14;13;
74333;PMS5003;62753;40.394;-80.022;2023-07-29T11:15:31;16;13;
74333;PMS5003;62753;40.394;-80.022;2023-07-29T11:17:56;13;13;
74333;PMS5003;62753;40.394;-80.022;2023-07-29T11:20:22;15;14;
74333;PMS5003;62753;40.394;-80.022;2023-07-29T11:22:47;13;12;
74333;PMS5003;62753;40.394;-80.022;2023-07-29T11:25:14;12;12;
74333;PMS5003;62753;40.394;-80.022;2023-07-29T11:27:38;14;13;
74333;PMS5003;62753;40.394;-80.022;2023-07-29T11:30:04;13;13;
74333;PMS5003;62753;40.394;-80.022;2023-07-29T11:32:29;12;11;
74333;PMS5003;62753;40.394;-80.022;2023-07-29T11:34:54;14;13;
74333;PMS5003;62753;40.394;-80.022;2023-07-29T11:37:20;14;14;
74333;PMS5003;62753;40.394;-80.022;2023-07-29T11:39:45;11;11;
74333;PMS5003;62753;40.394;-80.022;2023-07-29T11:42:10;11;10;
74333;PMS5003;62753;40.394;-80.022;2023-07-29T11:44:36;15;15;
74333;PMS5003;62753;40.394;-80.022;2023-07-29T11:47:01;14;14;
74333;PMS5003;62753;40.394;-80.022;2023-07-29T11:49:27;16;13;
74333;PMS5003;62753;40.394;-80.022;2023-07-29T11:51:53;16;15;
74333;PMS5003;62753;40.394;-80.022;2023-07-29T11:54:18;17;14;
74333;PMS5003;62753;40.394;-80.022;2023-07-29T11:56:43;16;14;
74333;PMS5003;62753;40.394;-80.022;2023-07-29T11:59:09;14;14;
74333;PMS5003;62753;40.394;-80.022;2023-07-29T12:01:35;12;12;
74333;PMS5003;62753;40.394;-80.022;2023-07-29T12:04:00;11;11;
74333;PMS5003;62753;40.394;-80.022;2023-07-29T12:06:26;11;10;
74333;PMS5003;62753;40.394;-80.022;2023-07-29T12:08:51;12;11;
74333;PMS5003;62753;40.394;-80.022;2023-07-29T12:11:16;13;13;
74333;PMS5003;62753;40.394;-80.022;2023-07-29T12:13:41;10;9;
74333;PMS5003;62753;40.394;-80.022;2023-07-29T12:16:06;9;9;
74333;PMS5003;62753;40.394;-80.022;2023-07-29T12:18:32;10;10;
74333;PMS5003;62753;40.394;-80.022;2023-07-29T12:20:57;6;6;
74333;PMS5003;62753;40.394;-80.022;2023-07-29T12:23:24;6;6;
74333;PMS5003;62753;40.394;-80.022;2023-07-29T12:25:47;10;10;
74333;PMS5003;62753;40.394;-80.022;2023-07-29T12:28:12;7;7;
74333;PMS5003;62753;40.394;-80.022;2023-07-29T12:30:41;9;9;
74333;PMS5003;62753;40.394;-80.022;2023-07-29T12:33:03;8;8;
74333;PMS5003;62753;40.394;-80.022;2023-07-29T12:37:58;10;9;
74333;PMS5003;62753;40.394;-80.022;2023-07-29T12:40:21;8;8;
74333;PMS5003;62753;40.394;-80.022;2023-07-29T12:42:44;9;9;
74333;PMS5003;62753;40.394;-80.022;2023-07-29T12:45:09;7;7;
74333;PMS5003;62753;40.394;-80.022;2023-07-29T12:47:34;6;6;
74333;PMS5003;62753;40.394;-80.022;2023-07-29T12:49:59;7;6;
74333;PMS5003;62753;40.394;-80.022;2023-07-29T12:52:25;8;8;
74333;PMS5003;62753;40.394;-80.022;2023-07-29T12:54:50;6;5;
74333;PMS5003;62753;40.394;-80.022;2023-07-29T12:57:15;7;6;
74333;PMS5003;62753;40.394;-80.022;2023-07-29T12:59:41;6;6;
74333;PMS5003;62753;40.394;-80.022;2023-07-29T13:02:05;9;7;
74333;PMS5003;62753;40.394;-80.022;2023-07-29T13:04:31;6;6;
74333;PMS5003;62753;40.394;-80.022;2023-07-29T13:06:56;7;7;
74333;PMS5003;62753;40.394;-80.022;2023-07-29T13:09:21;5;5;
74333;PMS5003;62753;40.394;-80.022;2023-07-29T13:11:46;6;5;
74333;PMS5003;62753;40.394;-80.022;2023-07-29T13:14:12;8;7;
74333;PMS5003;62753;40.394;-80.022;2023-07-29T13:16:36;8;7;
74333;PMS5003;62753;40.394;-80.022;2023-07-29T13:19:01;8;7;
74333;PMS5003;62753;40.394;-80.022;2023-07-29T13:21:26;6;6;
74333;PMS5003;62753;40.394;-80.022;2023-07-29T13:23:52;9;8;
74333;PMS5003;62753;40.394;-80.022;2023-07-29T13:26:17;6;6;
74333;PMS5003;62753;40.394;-80.022;2023-07-29T13:28:42;9;9;
74333;PMS5003;62753;40.394;-80.022;2023-07-29T13:31:08;5;5;
74333;PMS5003;62753;40.394;-80.022;2023-07-29T13:33:33;7;7;
74333;PMS5003;62753;40.394;-80.022;2023-07-29T13:35:58;7;7;
74333;PMS5003;62753;40.394;-80.022;2023-07-29T13:38:23;8;8;
74333;PMS5003;62753;40.394;-80.022;2023-07-29T13:40:49;6;6;
74333;PMS5003;62753;40.394;-80.022;2023-07-29T13:43:13;7;6;
74333;PMS5003;62753;40.394;-80.022;2023-07-29T13:45:39;6;6;
74333;PMS5003;62753;40.394;-80.022;2023-07-29T13:48:04;6;5;
74333;PMS5003;62753;40.394;-80.022;2023-07-29T13:50:29;6;6;
74333;PMS5003;62753;40.394;-80.022;2023-07-29T13:52:55;7;6;
74333;PMS5003;62753;40.394;-80.022;2023-07-29T13:55:20;6;5;
74333;PMS5003;62753;40.394;-80.022;2023-07-29T13:57:45;5;5;
74333;PMS5003;62753;40.394;-80.022;2023-07-29T14:00:10;4;4;
74333;PMS5003;62753;40.394;-80.022;2023-07-29T14:02:35;4;4;
74333;PMS5003;62753;40.394;-80.022;2023-07-29T14:05:00;6;6;
74333;PMS5003;62753;40.394;-80.022;2023-07-29T14:07:25;3;2;
74333;PMS5003;62753;40.394;-80.022;2023-07-29T14:09:50;4;4;
74333;PMS5003;62753;40.394;-80.022;2023-07-29T14:12:15;5;5;
74333;PMS5003;62753;40.394;-80.022;2023-07-29T14:14:41;6;4;
74333;PMS5003;62753;40.394;-80.022;2023-07-29T14:17:06;2;2;
74333;PMS5003;62753;40.394;-80.022;2023-07-29T14:19:31;2;2;
74333;PMS5003;62753;40.394;-80.022;2023-07-29T14:21:56;4;4;
74333;PMS5003;62753;40.394;-80.022;2023-07-29T14:24:21;3;3;
74333;PMS5003;62753;40.394;-80.022;2023-07-29T14:26:46;4;4;
74333;PMS5003;62753;40.394;-80.022;2023-07-29T14:29:11;3;3;
74333;PMS5003;62753;40.394;-80.022;2023-07-29T14:31:37;1;1;
74333;PMS5003;62753;40.394;-80.022;2023-07-29T14:34:03;3;3;
74333;PMS5003;62753;40.394;-80.022;2023-07-29T14:36:28;3;3;
74333;PMS5003;62753;40.394;-80.022;2023-07-29T14:38:55;3;3;
74333;PMS5003;62753;40.394;-80.022;2023-07-29T14:41:21;2;2;
74333;PMS5003;62753;40.394;-80.022;2023-07-29T14:43:46;3;2;
74333;PMS5003;62753;40.394;-80.022;2023-07-29T14:46:12;4;3;
74333;PMS5003;62753;40.394;-80.022;2023-07-29T14:48:38;4;3;
74333;PMS5003;62753;40.394;-80.022;2023-07-29T14:51:04;2;2;
74333;PMS5003;62753;40.394;-80.022;2023-07-29T14:53:31;4;3;
74333;PMS5003;62753;40.394;-80.022;2023-07-29T14:55:56;2;2;
74333;PMS5003;62753;40.394;-80.022;2023-07-29T14:58:22;1;1;
74333;PMS5003;62753;40.394;-80.022;2023-07-29T15:00:47;0;0;
74333;PMS5003;62753;40.394;-80.022;2023-07-29T15:03:13;1;1;
74333;PMS5003;62753;40.394;-80.022;2023-07-29T15:05:39;2;2;
74333;PMS5003;62753;40.394;-80.022;2023-07-29T15:08:05;3;2;
74333;PMS5003;62753;40.394;-80.022;2023-07-29T15:10:31;1;1;
74333;PMS5003;62753;40.394;-80.022;2023-07-29T15:12:57;3;3;
74333;PMS5003;62753;40.394;-80.022;2023-07-29T15:15:23;2;2;
74333;PMS5003;62753;40.394;-80.022;2023-07-29T15:17:49;2;1;
74333;PMS5003;62753;40.394;-80.022;2023-07-29T15:20:15;3;2;
74333;PMS5003;62753;40.394;-80.022;2023-07-29T15:22:41;2;2;
74333;PMS5003;62753;40.394;-80.022;2023-07-29T15:25:07;3;3;
74333;PMS5003;62753;40.394;-80.022;2023-07-29T15:27:32;2;2;
74333;PMS5003;62753;40.394;-80.022;2023-07-29T15:29:57;3;3;
74333;PMS5003;62753;40.394;-80.022;2023-07-29T15:32:22;2;2;
74333;PMS5003;62753;40.394;-80.022;2023-07-29T15:34:48;0;0;
74333;PMS5003;62753;40.394;-80.022;2023-07-29T15:37:14;2;2;
74333;PMS5003;62753;40.394;-80.022;2023-07-29T15:39:40;3;2;
74333;PMS5003;62753;40.394;-80.022;2023-07-29T15:42:06;1;1;
74333;PMS5003;62753;40.394;-80.022;2023-07-29T15:44:32;2;2;
74333;PMS5003;62753;40.394;-80.022;2023-07-29T15:46:57;2;2;
74333;PMS5003;62753;40.394;-80.022;2023-07-29T15:49:24;1;1;
74333;PMS5003;62753;40.394;-80.022;2023-07-29T15:51:49;2;2;
74333;PMS5003;62753;40.394;-80.022;2023-07-29T15:54:15;2;2;